Time;durP1;ratioP1;P1;durP2;ratioP2;P2;SDS_P1;SDS_P2;PMS_P1;PMS_P2;Temp;Humidity;BMP_temperature;BMP_pressure;BME280_temperature;BME280_humidity;BME280_pressure;Samples;Min_cycle;Max_cycle;Signal;HPM_P1;HPM_P2
2022/02/08 00:02:07;;;;;;;;;13.75;10.50;;;;;12.94;57.79;99830.63;146596;601;46008;-74
2022/02/08 00:05:01;;;;;;;;;10.00;9.75;;;;;12.91;57.85;99837.47;146597;583;45914;-74
2022/02/08 00:07:55;;;;;;;;;25.00;22.00;;;;;12.87;59.31;99817.44;146593;589;46012;-75
2022/02/08 00:10:47;;;;;;;;;9.00;8.50;;;;;12.81;57.74;99812.94;146597;578;46021;-73
2022/02/08 00:13:39;;;;;;;;;10.25;9.75;;;;;12.56;62.88;99800.09;146597;614;46012;-77
2022/02/08 00:16:31;;;;;;;;;12.25;11.00;;;;;12.28;63.55;99795.81;146598;609;46008;-80
2022/02/08 00:19:23;;;;;;;;;14.75;13.75;;;;;12.06;65.84;99797.78;146594;714;46017;-81
2022/02/08 00:22:16;;;;;;;;;16.00;15.25;;;;;11.95;64.87;99794.81;146594;692;46020;-80
2022/02/08 00:25:09;;;;;;;;;14.25;12.50;;;;;11.94;65.49;99803.47;146596;615;46916;-79
2022/02/08 00:28:01;;;;;;;;;2.75;2.75;;;;;11.91;61.42;99803.37;146595;611;46020;-80
2022/02/08 00:30:54;;;;;;;;;0.00;0.00;;;;;11.87;55.52;99814.50;146602;570;46016;-77
2022/02/08 00:33:46;;;;;;;;;0.00;0.00;;;;;11.82;53.37;99815.16;146600;699;46021;-79
2022/02/08 00:36:38;;;;;;;;;0.00;0.00;;;;;11.68;51.99;99826.00;146603;635;47012;-77
2022/02/08 00:39:32;;;;;;;;;0.75;0.00;;;;;11.45;50.75;99812.25;146607;596;46020;-78
2022/02/08 00:42:25;;;;;;;;;0.00;0.00;;;;;11.14;49.95;99825.03;146602;606;47010;-79
2022/02/08 00:45:28;;;;;;;;;0.25;0.00;;;;;10.88;50.08;99827.59;146603;634;46008;-80
2022/02/08 00:48:31;;;;;;;;;0.00;0.00;;;;;10.70;49.67;99842.50;146600;582;46017;-77
2022/02/08 00:51:26;;;;;;;;;0.00;0.00;;;;;10.57;49.49;99847.22;146604;620;46020;-77
2022/02/08 00:54:18;;;;;;;;;0.00;0.00;;;;;10.52;49.73;99843.56;146603;581;46016;-77
2022/02/08 00:57:10;;;;;;;;;1.00;0.00;;;;;10.46;49.52;99835.56;146598;666;47008;-82
2022/02/08 01:00:02;;;;;;;;;0.00;0.00;;;;;10.39;49.68;99880.22;146601;628;46016;-78
2022/02/08 01:02:57;;;;;;;;;0.00;0.00;;;;;10.16;50.74;99925.94;146605;694;47008;-78
2022/02/08 01:05:54;;;;;;;;;0.00;0.00;;;;;9.84;52.21;99941.03;146608;595;46016;-79
2022/02/08 01:08:46;;;;;;;;;0.00;0.00;;;;;9.57;54.24;99945.94;146605;667;47008;-79
2022/02/08 01:11:39;;;;;;;;;0.00;0.00;;;;;9.32;55.07;99967.28;146605;613;46016;-80
2022/02/08 01:14:37;;;;;;;;;0.00;0.00;;;;;8.96;57.03;99992.38;146606;681;46020;-80
2022/02/08 01:17:31;;;;;;;;;1.00;1.00;;;;;8.69;58.76;99982.56;146603;572;46017;-76
2022/02/08 01:20:30;;;;;;;;;0.00;0.00;;;;;8.37;58.69;99956.84;146602;564;46020;-75
2022/02/08 01:23:23;;;;;;;;;0.00;0.00;;;;;8.00;61.01;99949.91;146602;573;46016;-75
2022/02/08 01:26:18;;;;;;;;;0.00;0.00;;;;;7.68;62.03;99941.44;146597;642;46010;-74
2022/02/08 01:29:21;;;;;;;;;0.00;0.00;;;;;7.52;62.34;99944.06;146603;632;46016;-77
2022/02/08 01:35:57;;;;;;;;;0.25;0.25;;;;;7.34;62.39;99951.75;146600;630;46010;-71
2022/02/08 01:39:14;;;;;;;;;0.00;0.00;;;;;7.32;67.46;99962.00;146608;718;46008;-74
2022/02/08 01:42:27;;;;;;;;;0.00;0.00;;;;;7.35;63.97;99976.72;146598;598;46016;-74
2022/02/08 01:45:42;;;;;;;;;0.00;0.00;;;;;7.37;64.38;100000.91;146601;579;46020;-70
2022/02/08 01:51:46;;;;;;;;;0.00;0.00;;;;;7.33;65.89;100014.47;146599;583;47020;-72
2022/02/08 01:54:39;;;;;;;;;0.00;0.00;;;;;7.32;65.37;100023.91;146600;580;46012;-76
2022/02/08 01:57:31;;;;;;;;;0.25;0.00;;;;;7.31;65.21;99995.44;146597;592;46008;-76
2022/02/08 02:00:24;;;;;;;;;0.00;0.00;;;;;7.29;65.78;99987.63;146597;574;46016;-78
2022/02/08 02:03:16;;;;;;;;;0.00;0.00;;;;;7.30;66.00;99993.66;146605;565;46008;-73
2022/02/08 02:06:08;;;;;;;;;0.00;0.00;;;;;7.30;64.96;99986.81;146599;622;46016;-72
2022/02/08 02:09:01;;;;;;;;;0.25;0.00;;;;;7.29;65.38;100016.00;146601;578;46021;-72
2022/02/08 02:11:56;;;;;;;;;1.00;0.00;;;;;7.25;65.14;100037.25;146601;639;46915;-71
2022/02/08 02:14:48;;;;;;;;;0.00;0.00;;;;;7.21;63.01;100032.75;146603;590;46020;-70
2022/02/08 02:17:41;;;;;;;;;0.00;0.00;;;;;7.10;65.53;100036.44;146599;569;46031;-78
2022/02/08 02:20:33;;;;;;;;;0.00;0.00;;;;;7.06;64.74;100055.13;146604;563;47008;-78
2022/02/08 02:23:26;;;;;;;;;0.00;0.00;;;;;6.53;66.58;99986.06;146601;578;47011;-79
2022/02/08 02:26:19;;;;;;;;;0.75;0.75;;;;;6.85;65.48;100072.88;146597;607;46020;-83
2022/02/08 02:29:11;;;;;;;;;0.00;0.00;;;;;6.80;64.77;100082.03;146600;569;46016;-82
2022/02/08 02:32:04;;;;;;;;;1.00;1.00;;;;;6.72;66.33;100087.63;146601;743;46021;-86
2022/02/08 02:34:58;;;;;;;;;0.00;0.00;;;;;6.68;63.15;100092.53;146599;575;46016;-83
2022/02/08 02:37:50;;;;;;;;;0.50;0.50;;;;;6.66;62.70;100107.00;146597;570;47916;-84
2022/02/08 02:40:45;;;;;;;;;0.25;0.25;;;;;6.63;64.91;100106.84;146605;653;46010;-84
2022/02/08 02:43:37;;;;;;;;;0.00;0.00;;;;;6.62;63.41;100076.75;146604;659;46020;-86
2022/02/08 02:46:29;;;;;;;;;1.25;1.25;;;;;6.61;62.41;100077.56;146609;571;46010;-89
2022/02/08 02:49:23;;;;;;;;;0.00;0.00;;;;;6.36;62.81;100045.25;146604;635;46016;-87
2022/02/08 02:52:15;;;;;;;;;0.00;0.00;;;;;6.54;61.70;100062.53;146600;564;46016;-78
2022/02/08 02:55:08;;;;;;;;;0.00;0.00;;;;;6.51;62.93;100067.50;146597;576;46008;-77
2022/02/08 02:57:59;;;;;;;;;1.00;1.00;;;;;6.47;62.59;100076.75;146600;628;46016;-79
2022/02/08 03:04:30;;;;;;;;;0.00;0.00;;;;;6.44;60.49;100092.91;146606;564;45914;-78
2022/02/08 03:20:01;;;;;;;;;2.00;2.00;;;;;6.86;58.20;100194.09;146605;615;46022;-83
2022/02/08 03:22:54;;;;;;;;;2.25;1.50;;;;;6.97;57.66;100205.00;146601;633;45916;-82
2022/02/08 03:25:47;;;;;;;;;0.75;0.75;;;;;7.05;58.66;100206.34;146599;651;47010;-82
2022/02/08 03:28:39;;;;;;;;;2.00;2.00;;;;;7.08;61.22;100213.34;146604;588;46010;-80
2022/02/08 03:31:32;;;;;;;;;1.25;1.25;;;;;7.10;60.88;100227.19;146601;570;45024;-77
2022/02/08 03:34:24;;;;;;;;;2.00;1.50;;;;;7.04;63.51;100221.69;146603;577;45016;-77
2022/02/08 03:37:17;;;;;;;;;1.00;1.00;;;;;7.02;66.78;100228.47;146608;596;46008;-80
2022/02/08 03:40:19;;;;;;;;;0.00;0.00;;;;;6.98;65.91;100230.00;146604;670;46010;-76
2022/02/08 03:46:34;;;;;;;;;0.00;0.00;;;;;6.85;68.13;100250.69;146606;583;47010;-78
2022/02/08 03:49:26;;;;;;;;;2.00;0.50;;;;;6.84;67.18;100248.91;146606;610;46020;-78
2022/02/08 03:52:23;;;;;;;;;0.00;0.00;;;;;6.86;66.13;100245.62;146602;570;46024;-82
2022/02/08 03:55:15;;;;;;;;;1.00;1.00;;;;;6.88;66.48;100245.69;146598;569;46008;-83
2022/02/08 03:58:07;;;;;;;;;1.00;1.00;;;;;6.93;65.54;100260.63;146599;606;46016;-74
2022/02/08 04:07:40;;;;;;;;;1.00;0.75;;;;;6.81;66.21;100272.81;146604;569;46022;-71
2022/02/08 04:10:32;;;;;;;;;0.00;0.00;;;;;6.76;67.14;100275.91;146603;569;46016;-81
2022/02/08 04:13:44;;;;;;;;;1.00;1.00;;;;;6.67;68.97;100276.28;146604;607;46020;-77
2022/02/08 04:16:38;;;;;;;;;1.00;0.00;;;;;6.63;68.39;100270.03;146600;564;46914;-76
2022/02/08 04:19:37;;;;;;;;;0.50;0.50;;;;;6.57;68.93;100261.94;146603;683;46010;-75
2022/02/08 04:35:44;;;;;;;;;3.75;3.75;;;;;6.44;69.40;100296.38;146595;595;46025;-76
2022/02/08 04:42:05;;;;;;;;;8.75;7.00;;;;;6.48;69.75;100275.16;146600;572;46914;-82
2022/02/08 04:48:40;;;;;;;;;2.25;2.00;;;;;6.34;69.05;100286.31;146601;611;47010;-83
2022/02/08 04:51:49;;;;;;;;;4.50;2.00;;;;;6.34;67.83;100276.00;146601;667;46020;-84
2022/02/08 04:54:56;;;;;;;;;2.00;2.00;;;;;6.43;67.95;100301.44;146599;584;46016;-81
2022/02/08 05:01:24;;;;;;;;;1.75;1.75;;;;;6.50;65.40;100289.81;146602;565;46016;-80
2022/02/08 05:36:02;;;;;;;;;4.00;2.25;;;;;6.88;61.30;100320.44;146604;594;46022;-73
2022/02/08 05:42:23;;;;;;;;;4.00;2.75;;;;;6.96;52.21;100331.22;146603;620;46022;-80
2022/02/08 05:48:33;;;;;;;;;2.00;2.00;;;;;7.09;49.08;100362.97;146603;606;46008;-79
2022/02/08 05:51:33;;;;;;;;;2.50;2.00;;;;;7.13;48.96;100367.53;146600;596;46016;-79
2022/02/08 05:54:26;;;;;;;;;4.75;4.75;;;;;7.18;50.10;100381.56;146607;569;46008;-77
2022/02/08 05:57:18;;;;;;;;;6.00;5.75;;;;;7.21;48.91;100387.69;146602;652;45916;-78
2022/02/08 06:00:12;;;;;;;;;3.75;3.75;;;;;7.25;49.18;100407.69;146598;582;46021;-83
2022/02/08 06:03:06;;;;;;;;;6.50;5.00;;;;;7.27;49.28;100421.59;146600;655;47010;-75
2022/02/08 06:05:58;;;;;;;;;4.00;4.00;;;;;7.32;48.70;100428.81;146602;583;46021;-75
2022/02/08 06:08:51;;;;;;;;;5.50;4.00;;;;;7.37;49.71;100432.53;146604;619;46012;-75
2022/02/08 06:11:43;;;;;;;;;6.50;5.00;;;;;7.42;49.17;100450.87;146603;614;47008;-78
2022/02/08 06:14:36;;;;;;;;;10.75;9.75;;;;;7.45;49.25;100456.22;146595;592;46016;-76
2022/02/08 06:17:29;;;;;;;;;8.00;5.00;;;;;6.48;50.50;100289.75;146606;565;47008;-75
2022/02/08 06:20:21;;;;;;;;;5.50;4.75;;;;;7.48;51.09;100464.13;146602;601;46016;-74
2022/02/08 06:23:14;;;;;;;;;5.00;5.00;;;;;7.48;49.21;100469.28;146606;579;46008;-77
2022/02/08 06:26:06;;;;;;;;;6.75;5.75;;;;;7.46;50.62;100470.87;146599;612;46016;-78
2022/02/08 06:29:08;;;;;;;;;3.25;3.25;;;;;7.46;49.31;100495.78;146597;590;46021;-85
2022/02/08 06:32:00;;;;;;;;;6.00;6.00;;;;;7.47;48.44;100487.25;146604;637;46010;-84
2022/02/08 06:34:55;;;;;;;;;4.75;4.75;;;;;7.48;48.68;100499.38;146603;635;46021;-83
2022/02/08 06:37:46;;;;;;;;;5.75;5.50;;;;;7.49;48.00;100503.72;146604;704;46010;-83
2022/02/08 06:40:40;;;;;;;;;4.75;3.00;;;;;7.49;47.72;100506.28;146607;573;46008;-81
2022/02/08 06:43:32;;;;;;;;;4.25;4.25;;;;;7.49;46.76;100514.94;146601;566;46017;-80
2022/02/08 06:46:24;;;;;;;;;4.75;4.00;;;;;7.48;47.54;100510.56;146604;579;47008;-83
2022/02/08 06:49:17;;;;;;;;;4.00;3.00;;;;;7.48;46.51;100518.31;146600;627;46017;-78
2022/02/08 06:52:10;;;;;;;;;11.00;9.25;;;;;7.51;46.68;100528.81;146596;585;47915;-82
2022/02/08 06:55:03;;;;;;;;;3.00;3.00;;;;;7.55;46.82;100538.50;146600;565;46016;-78
2022/02/08 06:58:04;;;;;;;;;6.50;4.25;;;;;7.58;47.04;100540.38;146597;574;46010;-81
2022/02/08 07:01:02;;;;;;;;;5.75;5.00;;;;;7.60;46.51;100547.44;146603;565;46012;-77
2022/02/08 07:03:54;;;;;;;;;6.75;4.50;;;;;7.60;45.68;100554.25;146603;609;46008;-77
2022/02/08 07:06:47;;;;;;;;;5.00;5.00;;;;;7.59;46.57;100553.38;146600;667;46916;-77
2022/02/08 07:09:39;;;;;;;;;5.00;5.00;;;;;7.58;47.50;100554.19;146603;590;46008;-72
2022/02/08 07:12:32;;;;;;;;;11.00;9.75;;;;;7.62;47.49;100563.00;146601;592;46011;-73
2022/02/08 07:15:24;;;;;;;;;7.00;5.00;;;;;7.56;46.77;100560.03;146607;586;46008;-84
2022/02/08 07:18:17;;;;;;;;;6.00;6.00;;;;;7.56;47.77;100570.34;146605;573;47010;-77
2022/02/08 07:21:11;;;;;;;;;6.50;5.50;;;;;7.58;47.46;100561.91;146603;659;46020;-79
2022/02/08 07:24:03;;;;;;;;;7.50;5.25;;;;;7.60;47.71;100573.25;146595;577;47010;-79
2022/02/08 07:26:55;;;;;;;;;7.25;7.00;;;;;7.60;48.80;100567.16;146600;592;46009;-79
2022/02/08 07:29:52;;;;;;;;;5.75;4.00;;;;;7.61;49.02;100576.69;146603;611;46916;-81
2022/02/08 07:32:47;;;;;;;;;7.75;7.75;;;;;7.62;49.22;100573.31;146603;593;46021;-82
2022/02/08 07:35:50;;;;;;;;;10.50;8.25;;;;;7.63;50.24;100586.31;146600;565;46010;-85
2022/02/08 07:38:43;;;;;;;;;13.25;13.25;;;;;7.65;50.95;100640.59;146600;696;46020;-85
2022/02/08 07:41:35;;;;;;;;;10.00;9.75;;;;;7.59;50.63;100586.03;146595;586;46916;-84
2022/02/08 07:44:28;;;;;;;;;13.50;11.00;;;;;7.52;51.36;100592.50;146603;598;46020;-84
2022/02/08 07:47:20;;;;;;;;;7.75;5.00;;;;;7.49;50.73;100596.59;146599;563;46016;-80
2022/02/08 07:50:13;;;;;;;;;11.00;9.25;;;;;7.44;50.07;100591.12;146603;669;46021;-82
2022/02/08 07:53:07;;;;;;;;;12.25;11.00;;;;;7.43;49.81;100596.22;146602;694;46008;-78
2022/02/08 07:56:00;;;;;;;;;13.50;10.50;;;;;7.44;50.54;100595.41;146593;690;46020;-79
2022/02/08 07:58:52;;;;;;;;;12.75;10.50;;;;;7.47;51.14;100604.22;146602;664;46025;-80
2022/02/08 08:01:45;;;;;;;;;9.25;7.75;;;;;7.46;51.13;100601.56;146600;571;46020;-78
2022/02/08 08:04:37;;;;;;;;;8.00;7.00;;;;;7.48;50.55;100605.12;146608;658;46012;-78
2022/02/08 08:07:30;;;;;;;;;13.75;12.25;;;;;7.50;50.52;100612.16;146602;569;46020;-79
2022/02/08 08:10:27;;;;;;;;;7.00;6.00;;;;;7.54;50.10;100624.47;146601;617;46017;-86
2022/02/08 08:13:21;;;;;;;;;8.50;8.25;;;;;7.56;49.23;100638.34;146604;613;46008;-84
2022/02/08 08:16:22;;;;;;;;;11.00;11.00;;;;;7.59;50.74;100615.28;146594;600;47010;-82
2022/02/08 08:22:36;;;;;;;;;8.50;7.25;;;;;7.66;50.80;100633.75;146601;572;46010;-89
2022/02/08 08:25:29;;;;;;;;;8.25;6.75;;;;;7.67;50.91;100651.91;146594;637;46021;-82
2022/02/08 08:28:21;;;;;;;;;3.25;2.00;;;;;7.63;49.33;100652.50;146601;582;46017;-81
2022/02/08 08:31:13;;;;;;;;;8.50;7.75;;;;;7.58;51.25;100654.81;146605;612;47008;-83
2022/02/08 08:34:06;;;;;;;;;9.00;6.00;;;;;7.53;50.70;100663.94;146601;605;46010;-84
2022/02/08 08:36:58;;;;;;;;;7.25;7.25;;;;;7.51;52.01;100657.81;146599;569;46008;-85
2022/02/08 08:39:52;;;;;;;;;12.50;11.00;;;;;7.47;54.26;100635.19;146597;698;47010;-83
2022/02/08 08:43:04;;;;;;;;;8.00;7.75;;;;;7.42;53.38;100667.56;146600;650;46020;-83
2022/02/08 08:49:23;;;;;;;;;19.75;13.75;;;;;7.29;54.78;100671.06;146598;646;46020;-78
2022/02/08 08:52:28;;;;;;;;;35.00;30.50;;;;;7.24;54.16;100710.25;146594;586;46016;-76
2022/02/08 08:55:20;;;;;;;;;24.50;18.25;;;;;7.21;53.43;100684.25;146594;605;46008;-83
2022/02/08 08:58:12;;;;;;;;;23.25;18.00;;;;;7.20;53.69;100688.53;146595;585;46012;-78
2022/02/08 09:01:04;;;;;;;;;10.75;9.50;;;;;7.22;54.10;100727.28;146596;599;47008;-76
2022/02/08 09:03:56;;;;;;;;;15.75;13.50;;;;;7.17;54.61;100702.13;146600;635;46916;-78
2022/02/08 09:06:50;;;;;;;;;14.25;10.75;;;;;7.15;54.77;100710.53;146598;595;46008;-77
2022/02/08 09:09:45;;;;;;;;;11.25;8.75;;;;;7.13;55.98;100717.28;146597;605;46016;-76
2022/02/08 09:12:55;;;;;;;;;32.00;28.50;;;;;7.14;54.54;100707.06;146596;662;46020;-75
2022/02/08 09:15:55;;;;;;;;;16.00;15.25;;;;;7.15;56.71;100689.91;146596;592;46016;-76
2022/02/08 09:22:33;;;;;;;;;10.50;9.25;;;;;7.14;55.62;100711.34;146599;563;47010;-77
2022/02/08 09:25:45;;;;;;;;;16.50;15.50;;;;;7.07;56.11;100722.94;146591;584;46021;-76
2022/02/08 09:28:51;;;;;;;;;14.00;13.25;;;;;7.02;58.11;100744.06;146596;610;46016;-76
2022/02/08 09:31:44;;;;;;;;;16.00;14.00;;;;;6.97;58.56;100755.75;146595;590;46020;-76
2022/02/08 09:34:39;;;;;;;;;13.75;13.00;;;;;6.82;60.43;100759.09;146590;694;47012;-75
2022/02/08 09:37:32;;;;;;;;;12.00;10.75;;;;;6.64;60.73;100757.88;146599;609;46020;-76
2022/02/08 09:40:26;;;;;;;;;12.75;9.50;;;;;6.51;64.31;100768.13;146596;621;46016;-75
2022/02/08 09:43:19;;;;;;;;;15.25;15.25;;;;;6.38;64.19;100772.44;146601;569;46008;-77
2022/02/08 09:46:12;;;;;;;;;21.50;18.00;;;;;6.29;64.50;100787.25;146601;609;47010;-74
2022/02/08 09:49:05;;;;;;;;;19.00;17.00;;;;;6.23;64.00;100817.72;146594;583;46021;-75
2022/02/08 09:51:59;;;;;;;;;9.25;7.75;;;;;6.18;65.47;100813.97;146598;593;46916;-74
2022/02/08 09:54:52;;;;;;;;;18.75;16.75;;;;;6.13;64.95;100829.06;146590;587;46021;-74
2022/02/08 09:57:44;;;;;;;;;9.50;9.25;;;;;6.07;64.60;100838.94;146596;595;46016;-75
2022/02/08 10:00:39;;;;;;;;;15.50;14.00;;;;;5.96;65.85;100832.12;146599;611;46020;-77
2022/02/08 10:03:31;;;;;;;;;17.75;13.50;;;;;5.85;65.53;100831.31;146596;564;46016;-75
2022/02/08 10:06:24;;;;;;;;;13.00;10.50;;;;;5.76;67.68;100835.81;146601;590;46008;-75
2022/02/08 10:09:16;;;;;;;;;20.50;19.00;;;;;5.62;70.09;100839.97;146594;624;46016;-74
2022/02/08 10:12:10;;;;;;;;;18.25;18.25;;;;;5.53;69.37;100854.72;146593;628;46008;-76
2022/02/08 10:21:45;;;;;;;;;24.50;18.75;;;;;5.22;72.43;100838.72;146598;581;46012;-77
2022/02/08 10:24:38;;;;;;;;;13.25;12.25;;;;;5.07;73.43;100849.63;146592;573;46021;-76
2022/02/08 10:27:59;;;;;;;;;26.00;23.25;;;;;5.02;72.76;100861.28;146597;566;46010;-77
2022/02/08 10:40:25;;;;;;;;;29.25;22.50;;;;;5.07;72.16;100879.59;146597;591;46018;-77
2022/02/08 10:43:19;;;;;;;;;15.25;14.00;;;;;5.05;71.38;100868.31;146595;579;47008;-72
2022/02/08 10:46:22;;;;;;;;;23.75;18.00;;;;;5.07;69.64;100893.34;146601;597;46042;-76
2022/02/08 10:49:19;;;;;;;;;13.00;11.25;;;;;5.11;70.81;100889.34;146590;602;46021;-74
2022/02/08 10:52:14;;;;;;;;;45.25;35.50;;;;;5.10;70.73;100893.56;146598;601;46016;-72
2022/02/08 10:55:25;;;;;;;;;22.25;19.50;;;;;5.08;71.82;100904.53;146591;640;46021;-71
2022/02/08 10:58:38;;;;;;;;;17.00;15.25;;;;;5.07;70.26;100919.03;146596;593;46016;-87
2022/02/08 11:01:33;;;;;;;;;11.50;7.50;;;;;5.11;69.64;100922.75;146601;686;46020;-84
2022/02/08 11:04:45;;;;;;;;;13.25;12.00;;;;;5.07;70.88;100919.03;146597;588;47008;-80
2022/02/08 11:10:59;;;;;;;;;10.50;10.00;;;;;4.99;69.73;100932.09;146598;634;46010;-81
2022/02/08 11:14:19;;;;;;;;;16.75;15.50;;;;;4.95;70.01;100940.34;146595;577;46020;-78
2022/02/08 11:20:39;;;;;;;;;14.00;11.75;;;;;4.86;70.87;100955.97;146602;577;46020;-78
2022/02/08 11:23:47;;;;;;;;;11.25;8.50;;;;;4.82;70.66;100961.63;146593;569;46016;-77
2022/02/08 11:26:45;;;;;;;;;15.00;12.75;;;;;4.82;70.35;100966.75;146593;575;46008;-75
2022/02/08 11:29:42;;;;;;;;;20.00;18.75;;;;;4.78;71.41;100962.16;146597;589;46010;-80
2022/02/08 11:40:10;;;;;;;;;14.00;11.50;;;;;4.87;71.90;100947.47;146596;636;46021;-69
2022/02/08 12:02:43;;;;;;;;;36.75;31.50;;;;;4.98;72.31;100990.28;146596;581;46011;-72
2022/02/08 12:05:44;;;;;;;;;32.50;28.75;;;;;5.00;70.76;100990.41;146593;614;46020;-71
2022/02/08 12:08:37;;;;;;;;;37.75;33.25;;;;;4.96;73.82;100991.88;146594;585;46016;-74
2022/02/08 12:12:04;;;;;;;;;27.75;23.00;;;;;4.94;73.54;101002.78;146597;588;47008;-73
2022/02/08 12:34:27;;;;;;;;;23.50;20.00;;;;;4.74;74.92;101030.41;146594;572;46016;-76
2022/02/08 12:54:18;;;;;;;;;26.00;25.25;;;;;4.73;75.35;101049.12;146600;608;46914;-75
2022/02/08 12:57:24;;;;;;;;;29.00;28.25;;;;;4.78;76.21;101041.81;146595;591;46020;-76
2022/02/08 13:00:39;;;;;;;;;30.75;26.00;;;;;4.87;73.36;101038.28;146598;564;46010;-76
2022/02/08 14:01:44;;;;;;;;;28.75;28.00;;;;;6.35;63.87;101104.47;146595;618;46021;-74
2022/02/08 14:05:23;;;;;;;;;30.00;25.25;;;;;6.37;63.41;101087.44;146594;577;46016;-73
2022/02/08 14:11:41;;;;;;;;;31.00;29.25;;;;;6.58;62.91;101085.56;146597;577;46018;-73
2022/02/08 14:14:39;;;;;;;;;46.25;37.00;;;;;6.69;63.30;101094.94;146595;592;46021;-75
2022/02/08 14:17:40;;;;;;;;;50.50;40.75;;;;;6.74;64.07;101097.87;146593;597;46012;-73
2022/02/08 14:30:30;;;;;;;;;49.25;36.50;;;;;6.86;62.64;101124.53;146596;625;46019;-73
2022/02/08 15:08:41;;;;;;;;;28.25;25.50;;;;;7.11;61.11;101168.44;146595;588;46017;-76
2022/02/08 15:11:45;;;;;;;;;48.25;39.25;;;;;7.12;60.94;101164.19;146593;564;46020;-75
2022/02/08 15:14:46;;;;;;;;;55.25;43.50;;;;;7.12;62.11;101164.19;146595;601;46916;-76
2022/02/08 15:17:38;;;;;;;;;47.25;38.00;;;;;7.10;61.14;101174.41;146594;679;46020;-74
2022/02/08 15:20:30;;;;;;;;;54.50;44.50;;;;;7.07;60.98;101188.72;146595;713;46013;-74
2022/02/08 15:23:22;;;;;;;;;52.00;43.50;;;;;7.06;60.87;101189.53;146597;582;47008;-74
2022/02/08 15:26:15;;;;;;;;;56.25;44.75;;;;;7.06;61.47;101184.38;146596;686;46016;-76
2022/02/08 15:29:07;;;;;;;;;57.50;46.75;;;;;7.02;61.12;101184.94;146598;593;46008;-75
2022/02/08 15:32:01;;;;;;;;;83.33;68.00;;;;;7.02;61.93;101184.94;146600;573;46916;-74
2022/02/08 15:34:53;;;;;;;;;71.25;56.00;;;;;7.00;61.19;101199.37;146598;622;46020;-74
2022/02/08 15:37:45;;;;;;;;;68.25;54.00;;;;;6.99;60.57;101203.66;146598;651;46012;-74
2022/02/08 15:40:38;;;;;;;;;53.25;41.50;;;;;6.99;59.47;101213.06;146593;597;46008;-75
2022/02/08 15:43:31;;;;;;;;;39.25;35.75;;;;;6.98;59.15;101211.25;146596;596;46012;-75
2022/02/08 15:46:26;;;;;;;;;56.25;45.50;;;;;6.89;59.50;101185.72;146595;633;46020;-74
2022/02/08 15:49:18;;;;;;;;;42.75;34.75;;;;;6.95;58.20;101211.97;146595;616;46016;-76
2022/02/08 15:52:27;;;;;;;;;53.75;44.00;;;;;6.91;58.01;101220.22;146598;571;46008;-75
2022/02/08 15:55:34;;;;;;;;;63.75;50.00;;;;;6.89;58.25;101225.28;146596;662;46010;-75
2022/02/08 16:00:21;;;;;;;;;55.50;44.00;;;;;6.90;58.38;101237.37;146601;596;46008;-76
2022/02/08 16:05:09;;;;;;;;;56.75;46.00;;;;;6.87;58.04;101234.56;146600;611;46016;-75
2022/02/08 16:05:19;;;;;;;;;56.00;44.50;;;;;6.81;58.01;101220.34;146597;619;46011;-75
2022/02/08 16:08:25;;;;;;;;;60.50;46.75;;;;;6.87;55.77;101249.16;146598;620;47010;-75
2022/02/08 16:14:48;;;;;;;;;35.75;29.75;;;;;6.87;54.94;101259.47;146596;615;46017;-75
2022/02/08 16:21:27;;;;;;;;;18.75;18.75;;;;;6.85;54.42;101274.84;146598;611;46017;-75
2022/02/08 16:24:45;;;;;;;;;15.50;14.25;;;;;6.85;53.03;101273.91;146596;638;46020;-75
2022/02/08 16:28:02;;;;;;;;;19.00;16.00;;;;;6.83;53.70;101281.53;146595;591;46016;-76
2022/02/08 16:47:53;;;;;;;;;25.25;24.00;;;;;6.90;50.31;101300.94;146594;582;46909;-76
2022/02/08 16:53:35;;;;;;;;;16.25;15.00;;;;;6.96;49.88;101296.25;146596;605;46016;-76
2022/02/08 16:56:49;;;;;;;;;39.75;33.75;;;;;7.01;51.09;101305.22;146599;653;47021;-76
2022/02/08 16:59:40;;;;;;;;;29.75;24.00;;;;;7.03;50.06;101318.22;146597;602;46913;-75
2022/02/08 17:02:36;;;;;;;;;26.75;25.00;;;;;7.08;50.78;101327.22;146598;626;45020;-75
2022/02/08 17:05:28;;;;;;;;;18.25;18.25;;;;;7.10;50.14;101316.22;146600;613;46916;-76
2022/02/08 17:08:23;;;;;;;;;28.50;25.25;;;;;7.05;49.43;101314.97;146599;580;46020;-77
2022/02/08 17:11:22;;;;;;;;;18.25;17.25;;;;;7.09;48.46;101324.72;146596;591;46012;-75
2022/02/08 17:18:14;;;;;;;;;20.00;15.00;;;;;7.18;49.78;101340.88;146596;584;46018;-76
2022/02/08 17:46:20;;;;;;;;;20.00;15.25;;;;;7.48;48.42;101371.44;146590;612;46020;-76
2022/02/08 17:49:12;;;;;;;;;11.75;11.75;;;;;7.48;48.14;101369.75;146597;578;46010;-75
2022/02/08 17:52:05;;;;;;;;;9.25;8.75;;;;;7.52;49.40;101386.37;146599;694;47008;-75
2022/02/08 17:54:57;;;;;;;;;32.50;23.50;;;;;7.54;48.93;101397.69;146597;583;46016;-76
2022/02/08 17:57:52;;;;;;;;;20.00;19.25;;;;;7.54;48.55;101387.34;146596;584;46021;-76
2022/02/08 18:00:45;;;;;;;;;25.25;24.50;;;;;7.52;49.39;101384.69;146595;607;46016;-76
2022/02/08 18:03:37;;;;;;;;;18.25;18.00;;;;;7.46;47.58;101384.22;146602;600;46020;-76
2022/02/08 18:06:29;;;;;;;;;13.00;11.25;;;;;7.39;46.14;101398.34;146599;563;47012;-76
2022/02/08 18:09:24;;;;;;;;;16.50;14.25;;;;;7.38;47.27;101411.12;146595;685;46020;-76
2022/02/08 18:12:18;;;;;;;;;24.50;22.00;;;;;7.37;47.58;101411.91;146601;644;46010;-77
2022/02/08 18:15:13;;;;;;;;;11.00;11.00;;;;;7.37;48.55;101414.50;146593;586;46010;-78
2022/02/08 18:18:17;;;;;;;;;12.00;10.25;;;;;7.37;48.60;101425.72;146600;608;46016;-76
2022/02/08 18:24:32;;;;;;;;;12.75;10.25;;;;;7.39;48.26;101426.72;146598;599;46016;-78
2022/02/08 18:27:45;;;;;;;;;15.25;13.75;;;;;7.43;48.90;101430.44;146601;631;46008;-77
2022/02/08 19:12:17;;;;;;;;;13.50;12.00;;;;;7.50;47.15;101512.69;146599;606;46008;-80
2022/02/08 19:18:44;;;;;;;;;9.00;8.00;;;;;7.51;45.45;101529.97;146592;581;47010;-77
2022/02/08 19:21:43;;;;;;;;;16.25;14.00;;;;;7.51;47.21;101544.56;146596;563;45915;-76
2022/02/08 19:24:35;;;;;;;;;8.50;7.00;;;;;7.50;46.17;101546.22;146601;650;46008;-76
2022/02/08 19:27:28;;;;;;;;;13.50;8.00;;;;;7.53;46.79;101561.06;146596;625;46916;-77
2022/02/08 19:30:20;;;;;;;;;9.75;6.50;;;;;7.54;49.54;101561.19;146594;602;46020;-78
2022/02/08 19:33:12;;;;;;;;;7.00;6.00;;;;;7.53;46.99;101558.47;146599;609;46016;-78
2022/02/08 19:36:05;;;;;;;;;7.75;6.50;;;;;7.54;46.68;101562.84;146598;743;47008;-77
2022/02/08 19:38:59;;;;;;;;;12.50;7.50;;;;;7.54;46.69;101558.59;146600;609;46016;-76
2022/02/08 19:41:52;;;;;;;;;9.50;7.00;;;;;7.56;46.36;101557.03;146600;564;47010;-77
2022/02/08 19:44:53;;;;;;;;;20.50;18.00;;;;;7.56;47.02;101562.19;146597;634;46012;-76
2022/02/08 19:47:45;;;;;;;;;6.25;6.00;;;;;7.54;46.92;101568.00;146593;604;47010;-78
2022/02/08 19:50:40;;;;;;;;;7.00;5.75;;;;;7.57;47.50;101582.06;146603;592;46016;-78
2022/02/08 19:53:34;;;;;;;;;8.50;7.00;;;;;7.56;45.84;101594.84;146600;641;46010;-78
2022/02/08 19:56:38;;;;;;;;;10.00;8.00;;;;;7.58;46.66;101591.59;146595;578;46012;-76
2022/02/08 19:59:34;;;;;;;;;10.00;9.00;;;;;7.60;45.98;101612.34;146599;671;46008;-77
2022/02/08 20:02:28;;;;;;;;;11.00;9.00;;;;;7.60;46.34;101594.28;146600;564;46916;-77
2022/02/08 20:05:21;;;;;;;;;8.00;7.25;;;;;7.61;46.46;101634.81;146605;572;46020;-77
2022/02/08 20:08:13;;;;;;;;;9.75;8.75;;;;;7.60;46.92;101628.78;146604;638;46016;-76
2022/02/08 20:11:06;;;;;;;;;9.25;9.25;;;;;7.59;45.14;101624.38;146605;583;46008;-77
2022/02/08 20:13:58;;;;;;;;;7.25;5.75;;;;;7.59;46.43;101645.00;146602;579;46012;-76
2022/02/08 20:16:51;;;;;;;;;10.00;10.00;;;;;7.59;46.84;101642.44;146594;572;46008;-76
2022/02/08 20:19:46;;;;;;;;;7.00;5.75;;;;;7.59;47.07;101644.13;146598;598;47010;-78
2022/02/08 20:22:44;;;;;;;;;12.25;11.25;;;;;7.58;46.96;101638.06;146599;582;46020;-78
2022/02/08 20:25:44;;;;;;;;;7.50;6.25;;;;;7.58;47.25;101645.81;146606;577;46017;-77